createdAt,value
2022-12-14T00:00:00.886Z,16.43
2022-12-14T00:03:03.443Z,17.52
2022-12-14T00:06:18.189Z,18.07
2022-12-14T00:09:20.792Z,17.29
2022-12-14T00:12:26.393Z,17.14
2022-12-14T00:15:28.889Z,17.56
2022-12-14T00:18:31.032Z,17.90
2022-12-14T00:21:35.973Z,16.96
2022-12-14T00:24:38.311Z,17.96
2022-12-14T00:27:46.491Z,17.70
2022-12-14T00:30:49.175Z,16.91
2022-12-14T00:33:53.363Z,16.38
2022-12-14T00:36:56.580Z,16.34
2022-12-14T00:40:00.344Z,15.33
2022-12-14T00:43:02.583Z,15.05
2022-12-14T00:46:05.335Z,14.43
2022-12-14T00:49:10.103Z,14.48
2022-12-14T00:52:12.207Z,14.24
2022-12-14T00:55:15.295Z,14.32
2022-12-14T00:58:22.064Z,14.35
2022-12-14T01:01:24.426Z,14.18
2022-12-14T01:04:29.827Z,14.13
2022-12-14T01:07:33.274Z,13.92
2022-12-14T01:10:41.101Z,13.65
2022-12-14T01:13:43.719Z,13.25
2022-12-14T01:16:47.349Z,13.30
2022-12-14T01:19:50.240Z,13.31
2022-12-14T01:22:59.403Z,13.26
2022-12-14T01:26:04.811Z,12.76
2022-12-14T01:29:09.203Z,12.55
2022-12-14T01:32:11.529Z,13.18
2022-12-14T01:35:14.098Z,13.03
2022-12-14T01:38:16.307Z,12.52
2022-12-14T01:41:47.731Z,12.46
2022-12-14T01:44:57.365Z,12.48
2022-12-14T01:48:03.352Z,12.72
2022-12-14T01:51:05.921Z,12.36
2022-12-14T01:54:13.016Z,12.31
2022-12-14T01:57:17.265Z,12.49
2022-12-14T02:00:20.588Z,12.28
2022-12-14T02:03:29.399Z,11.84
2022-12-14T02:06:38.374Z,12.16
2022-12-14T02:09:42.215Z,12.27
2022-12-14T02:12:49.447Z,12.15
2022-12-14T02:15:52.658Z,12.02
2022-12-14T02:18:55.013Z,11.86
2022-12-14T02:22:18.600Z,11.84
2022-12-14T02:25:27.721Z,11.96
2022-12-14T02:29:07.103Z,11.83
2022-12-14T02:32:40.062Z,11.66
2022-12-14T02:35:44.880Z,11.67
2022-12-14T02:38:55.620Z,11.64
2022-12-14T02:42:09.776Z,11.58
2022-12-14T02:45:24.069Z,11.39
2022-12-14T02:48:33.252Z,11.17
2022-12-14T02:51:57.057Z,11.11
2022-12-14T02:55:18.088Z,11.04
2022-12-14T02:58:34.173Z,10.83
2022-12-14T03:01:39.973Z,10.77
2022-12-14T03:04:47.776Z,10.73
2022-12-14T03:08:08.982Z,10.65
2022-12-14T03:11:16.339Z,10.77
2022-12-14T03:14:28.850Z,10.58
2022-12-14T03:17:34.717Z,11.01
2022-12-14T03:20:39.240Z,11.06
2022-12-14T03:23:44.147Z,10.92
2022-12-14T03:26:59.548Z,10.91
2022-12-14T03:30:12.790Z,10.99
2022-12-14T03:33:18.887Z,11.17
2022-12-14T03:36:42.765Z,11.01
2022-12-14T03:39:47.807Z,11.02
2022-12-14T03:42:56.127Z,11.04
2022-12-14T03:46:03.377Z,10.83
2022-12-14T03:49:28.376Z,10.75
2022-12-14T03:53:04.122Z,10.96
2022-12-14T03:56:33.003Z,10.93
2022-12-14T03:59:47.539Z,10.90
2022-12-14T04:03:27.729Z,10.82
2022-12-14T04:06:40.882Z,10.84
2022-12-14T04:10:02.131Z,10.98
2022-12-14T04:13:28.027Z,10.90
2022-12-14T04:16:56.208Z,10.67
2022-12-14T04:20:09.821Z,10.83
2022-12-14T04:23:42.852Z,10.65
2022-12-14T04:26:53.527Z,10.73
2022-12-14T04:29:57.502Z,10.62
2022-12-14T04:33:27.133Z,10.68
2022-12-14T04:36:51.646Z,10.87
2022-12-14T04:40:05.521Z,10.77
2022-12-14T04:43:15.034Z,10.72
2022-12-14T04:46:25.308Z,10.77
2022-12-14T04:49:36.819Z,10.77
2022-12-14T04:52:47.161Z,10.48
2022-12-14T04:55:55.154Z,10.74
2022-12-14T04:58:57.443Z,10.58
2022-12-14T05:02:21.121Z,9.87
2022-12-14T05:05:30.850Z,10.64
2022-12-14T05:08:56.066Z,12.20
2022-12-14T05:12:18.301Z,12.70
2022-12-14T05:15:30.456Z,13.41
2022-12-14T05:18:39.013Z,13.61
2022-12-14T05:21:51.069Z,14.33
2022-12-14T05:24:53.244Z,14.83
2022-12-14T05:27:55.373Z,13.63
2022-12-14T05:30:57.529Z,13.38
2022-12-14T05:33:59.561Z,14.16
2022-12-14T05:37:01.577Z,14.77
2022-12-14T05:40:04.227Z,13.69
2022-12-14T05:43:12.372Z,14.14
2022-12-14T05:46:14.553Z,14.42
2022-12-14T05:49:16.693Z,14.91
2022-12-14T05:52:19.040Z,14.44
2022-12-14T05:55:21.398Z,14.76
2022-12-14T05:58:23.336Z,15.01
2022-12-14T06:01:25.548Z,15.42
2022-12-14T06:04:27.713Z,14.67
2022-12-14T06:07:29.776Z,14.94
2022-12-14T06:10:31.810Z,15.67
2022-12-14T06:13:33.896Z,15.23
2022-12-14T06:16:37.328Z,14.88
2022-12-14T06:19:39.607Z,15.66
2022-12-14T06:22:47.413Z,15.92
2022-12-14T06:25:56.554Z,14.53
2022-12-14T06:29:08.075Z,15.15
2022-12-14T06:32:10.165Z,15.38
2022-12-14T06:35:12.338Z,15.57
2022-12-14T06:38:15.031Z,14.85
2022-12-14T06:41:19.134Z,15.12
2022-12-14T06:44:21.311Z,15.24
2022-12-14T06:47:23.605Z,15.05
2022-12-14T06:50:29.867Z,14.73
2022-12-14T06:53:33.665Z,14.93
2022-12-14T06:56:35.812Z,15.22
2022-12-14T06:59:44.525Z,15.78
2022-12-14T07:02:47.654Z,15.65
2022-12-14T07:05:56.624Z,16.72
2022-12-14T07:09:14.828Z,16.61
2022-12-14T07:12:19.658Z,17.31
2022-12-14T07:15:21.762Z,15.94
2022-12-14T07:18:24.700Z,15.39
2022-12-14T07:21:27.690Z,15.58
2022-12-14T07:24:30.336Z,15.61
2022-12-14T07:27:33.081Z,15.45
2022-12-14T07:30:35.201Z,15.37
2022-12-14T07:33:37.637Z,15.24
2022-12-14T07:36:39.801Z,15.06
2022-12-14T07:39:41.817Z,14.95
2022-12-14T07:42:55.609Z,14.73
2022-12-14T07:46:16.389Z,14.71
2022-12-14T07:49:21.878Z,14.65
2022-12-14T07:52:37.175Z,14.40
2022-12-14T07:56:08.629Z,14.51
2022-12-14T07:59:25.665Z,14.45
2022-12-14T08:02:41.059Z,14.22
2022-12-14T08:05:43.304Z,14.35
2022-12-14T08:08:45.944Z,14.22
2022-12-14T08:11:48.846Z,14.32
2022-12-14T08:14:51.900Z,14.00
2022-12-14T08:17:56.651Z,14.32
2022-12-14T08:20:58.984Z,14.57
2022-12-14T08:24:01.488Z,14.66
2022-12-14T08:27:04.278Z,14.57
2022-12-14T08:30:08.599Z,14.46
2022-12-14T08:33:10.824Z,14.48
2022-12-14T08:36:21.711Z,14.69
2022-12-14T08:39:25.044Z,14.71
2022-12-14T08:42:27.253Z,14.74
2022-12-14T08:45:29.386Z,14.77
2022-12-14T08:48:31.648Z,14.76
2022-12-14T08:51:37.329Z,14.80
2022-12-14T08:54:39.347Z,14.71
2022-12-14T08:57:41.541Z,14.66
2022-12-14T09:00:43.624Z,14.48
2022-12-14T09:03:47.048Z,14.63
2022-12-14T09:06:49.106Z,14.52
2022-12-14T09:09:51.305Z,14.46
2022-12-14T09:12:53.369Z,14.61
2022-12-14T09:16:06.949Z,14.68
2022-12-14T09:19:09.103Z,14.60
2022-12-14T09:22:11.627Z,14.56
2022-12-14T09:25:13.929Z,14.45
2022-12-14T09:28:16.044Z,14.55
2022-12-14T09:31:21.143Z,14.50
2022-12-14T09:34:23.909Z,14.55
2022-12-14T09:37:26.289Z,14.52
2022-12-14T09:40:32.760Z,14.42
2022-12-14T09:43:43.820Z,14.69
2022-12-14T09:46:45.956Z,14.64
2022-12-14T09:49:57.523Z,14.69
2022-12-14T09:53:07.124Z,14.90
2022-12-14T09:56:14.921Z,14.89
2022-12-14T09:59:18.618Z,14.93
2022-12-14T10:02:38.223Z,15.02
2022-12-14T10:05:54.756Z,15.11
2022-12-14T10:09:03.675Z,14.98
2022-12-14T10:12:34.089Z,14.80
2022-12-14T10:15:58.005Z,14.69
2022-12-14T10:19:10.489Z,15.03
2022-12-14T10:22:36.428Z,15.11
2022-12-14T10:25:40.374Z,15.14
2022-12-14T10:29:00.731Z,15.13
2022-12-14T10:32:40.127Z,15.08
2022-12-14T10:35:45.895Z,15.02
2022-12-14T10:39:29.232Z,14.83
2022-12-14T10:42:58.382Z,14.89
2022-12-14T10:46:14.493Z,14.85
2022-12-14T10:49:30.142Z,14.82
2022-12-14T10:52:40.345Z,14.69
2022-12-14T10:55:46.033Z,14.54
2022-12-14T10:59:15.899Z,14.59
2022-12-14T11:02:40.249Z,14.56
2022-12-14T11:06:05.899Z,14.63
2022-12-14T11:09:24.340Z,14.54
2022-12-14T11:12:28.906Z,14.28
2022-12-14T11:15:47.158Z,14.60
2022-12-14T11:19:00.519Z,14.35
2022-12-14T11:22:17.153Z,14.63
2022-12-14T11:25:49.398Z,14.59
2022-12-14T11:28:56.397Z,14.46
2022-12-14T11:32:08.145Z,14.42
2022-12-14T11:35:17.539Z,14.30
2022-12-14T11:38:30.277Z,14.38
2022-12-14T11:41:42.508Z,14.28
2022-12-14T11:44:46.451Z,14.30
2022-12-14T11:48:20.277Z,14.01
2022-12-14T11:51:22.358Z,13.85
2022-12-14T11:54:24.867Z,13.94
2022-12-14T11:57:35.747Z,13.99
2022-12-14T12:00:49.156Z,13.90
2022-12-14T12:03:58.922Z,13.80
2022-12-14T12:07:13.085Z,13.75
2022-12-14T12:10:34.099Z,13.46
2022-12-14T12:13:40.136Z,13.32
2022-12-14T12:16:44.913Z,13.34
2022-12-14T12:19:51.745Z,13.31
2022-12-14T12:23:02.361Z,13.30
2022-12-14T12:26:15.296Z,13.22
2022-12-14T12:29:43.614Z,13.48
2022-12-14T12:32:52.346Z,13.41
2022-12-14T12:35:56.827Z,13.50
2022-12-14T12:39:08.035Z,13.31
2022-12-14T12:42:31.434Z,13.39
2022-12-14T12:45:43.681Z,13.32
2022-12-14T12:48:52.191Z,13.20
2022-12-14T12:52:00.515Z,13.10
2022-12-14T12:55:14.285Z,13.15
2022-12-14T12:58:30.722Z,13.04
2022-12-14T13:01:35.733Z,13.13
2022-12-14T13:04:41.362Z,13.15
2022-12-14T13:07:45.068Z,13.16
2022-12-14T13:11:24.607Z,13.05
2022-12-14T13:14:19.224Z,13.01
2022-12-14T13:17:33.179Z,13.10
2022-12-14T13:20:36.475Z,13.10
2022-12-14T13:23:46.338Z,13.11
2022-12-14T13:27:17.883Z,13.25
2022-12-14T13:30:29.141Z,14.40
2022-12-14T13:33:55.039Z,15.46
2022-12-14T13:37:18.272Z,16.75
2022-12-14T13:40:32.247Z,16.72
2022-12-14T13:44:04.761Z,16.97
2022-12-14T13:47:15.684Z,18.10
2022-12-14T13:50:39.989Z,18.61
2022-12-14T13:53:50.070Z,17.80
2022-12-14T13:57:08.056Z,17.72
2022-12-14T14:00:45.397Z,19.57
2022-12-14T14:03:51.249Z,18.91
2022-12-14T14:06:55.815Z,18.93
2022-12-14T14:10:04.972Z,19.45
2022-12-14T14:13:28.652Z,20.05
2022-12-14T14:16:43.647Z,19.07
2022-12-14T14:19:49.655Z,19.71
2022-12-14T14:23:17.540Z,20.19
2022-12-14T14:26:23.053Z,20.55
2022-12-14T14:29:30.478Z,19.96
2022-12-14T14:32:44.845Z,20.40
2022-12-14T14:35:49.777Z,20.53
2022-12-14T14:38:56.111Z,20.24
2022-12-14T14:42:03.383Z,20.09
2022-12-14T14:45:11.271Z,20.41
2022-12-14T14:48:50.539Z,20.41
2022-12-14T14:51:53.125Z,19.79
2022-12-14T14:55:43.322Z,20.37
2022-12-14T14:58:35.201Z,20.46
2022-12-14T15:01:48.227Z,19.91
2022-12-14T15:04:57.065Z,20.14
2022-12-14T15:08:22.654Z,20.49
2022-12-14T15:11:28.549Z,20.34
2022-12-14T15:14:36.679Z,20.18
2022-12-14T15:17:39.068Z,20.37
2022-12-14T15:20:41.570Z,20.34
2022-12-14T15:23:50.908Z,19.51
2022-12-14T15:26:54.080Z,19.79
2022-12-14T15:34:04.616Z,19.01
2022-12-14T15:42:34.367Z,20.57
2022-12-14T15:45:44.213Z,20.71
2022-12-14T15:48:46.244Z,19.15
2022-12-14T15:51:50.706Z,20.89
2022-12-14T15:54:53.172Z,21.28
2022-12-14T15:57:55.832Z,20.69
2022-12-14T16:01:27.987Z,20.68
2022-12-14T16:04:31.232Z,21.16
2022-12-14T16:07:42.468Z,21.18
2022-12-14T16:10:46.303Z,20.71
2022-12-14T16:13:50.750Z,20.98
2022-12-14T16:16:55.543Z,21.17
2022-12-14T16:20:20.847Z,20.90
2022-12-14T16:23:33.383Z,20.81
2022-12-14T16:26:38.766Z,21.00
2022-12-14T16:29:48.070Z,21.11
2022-12-14T16:33:06.575Z,20.53
2022-12-14T16:36:22.706Z,20.61
2022-12-14T16:39:32.542Z,20.91
2022-12-14T16:42:36.414Z,20.89
2022-12-14T16:46:06.300Z,20.66
2022-12-14T16:49:31.016Z,21.04
2022-12-14T16:52:37.660Z,21.07
2022-12-14T16:56:14.997Z,20.50
2022-12-14T16:59:42.261Z,20.82
2022-12-14T17:02:55.847Z,21.07
2022-12-14T17:06:05.499Z,20.60
2022-12-14T17:09:20.107Z,20.85
2022-12-14T17:12:24.140Z,21.17
2022-12-14T17:15:28.481Z,21.12
2022-12-14T17:18:34.433Z,20.59
2022-12-14T17:21:37.150Z,20.89
2022-12-14T17:24:39.491Z,21.20
2022-12-14T17:27:42.082Z,21.08
2022-12-14T17:30:44.131Z,20.78
2022-12-14T17:33:46.211Z,21.07
2022-12-14T17:36:48.339Z,21.09
2022-12-14T17:39:51.073Z,20.57
2022-12-14T17:42:56.256Z,20.83
2022-12-14T17:46:01.398Z,21.16
2022-12-14T17:49:06.799Z,21.25
2022-12-14T17:52:36.881Z,20.89
2022-12-14T17:55:38.952Z,21.14
2022-12-14T17:58:41.134Z,21.27
2022-12-14T18:01:45.738Z,20.89
2022-12-14T18:04:52.175Z,21.07
2022-12-14T18:07:54.842Z,21.22
2022-12-14T18:11:01.045Z,21.38
2022-12-14T18:14:03.703Z,20.93
2022-12-14T18:17:11.165Z,21.25
2022-12-14T18:20:14.321Z,21.50
2022-12-14T18:23:17.660Z,21.50
2022-12-14T18:26:21.272Z,21.16
2022-12-14T18:29:23.428Z,21.69
2022-12-14T18:32:25.836Z,21.72
2022-12-14T18:35:31.527Z,21.19
2022-12-14T18:38:33.511Z,21.27
2022-12-14T18:41:35.827Z,21.76
2022-12-14T18:44:38.822Z,21.66
2022-12-14T18:47:42.457Z,21.19
2022-12-14T18:50:46.301Z,21.48
2022-12-14T18:53:54.782Z,21.62
2022-12-14T18:56:57.267Z,21.41
2022-12-14T19:00:00.002Z,21.32
2022-12-14T19:03:03.758Z,21.49
2022-12-14T19:06:42.372Z,21.74
2022-12-14T19:09:31.213Z,21.25
2022-12-14T19:12:35.503Z,21.49
2022-12-14T19:15:37.751Z,21.68
2022-12-14T19:18:39.957Z,21.60
2022-12-14T19:21:42.296Z,21.39
2022-12-14T19:24:47.804Z,21.59
2022-12-14T19:28:56.099Z,21.05
2022-12-14T19:31:17.333Z,20.77
2022-12-14T19:34:19.785Z,21.29
2022-12-14T19:37:23.209Z,20.89
2022-12-14T19:40:26.860Z,20.65
2022-12-14T19:43:30.551Z,20.13
2022-12-14T19:46:32.917Z,19.62
2022-12-14T19:49:34.970Z,18.85
2022-12-14T19:52:38.623Z,18.62
2022-12-14T19:55:40.813Z,18.08
2022-12-14T19:58:43.622Z,18.02
2022-12-14T20:01:48.154Z,17.66
2022-12-14T20:04:50.887Z,17.73
2022-12-14T20:07:52.964Z,17.59
2022-12-14T20:10:55.163Z,17.37
2022-12-14T20:14:02.950Z,17.17
2022-12-14T20:17:11.262Z,16.97
2022-12-14T20:20:13.867Z,16.67
2022-12-14T20:23:15.945Z,16.79
2022-12-14T20:26:21.088Z,16.67
2022-12-14T20:29:23.695Z,16.56
2022-12-14T20:32:28.567Z,16.50
2022-12-14T20:35:53.702Z,16.70
2022-12-14T20:39:01.850Z,16.72
2022-12-14T20:42:04.118Z,16.70
2022-12-14T20:45:11.898Z,16.43
2022-12-14T20:48:14.061Z,16.65
2022-12-14T20:51:16.274Z,16.42
2022-12-14T20:54:22.388Z,16.41
2022-12-14T20:57:35.998Z,16.42
2022-12-14T21:00:38.110Z,16.44
2022-12-14T21:03:42.520Z,16.33
2022-12-14T21:06:44.817Z,16.22
2022-12-14T21:09:46.986Z,16.15
2022-12-14T21:12:49.264Z,16.17
2022-12-14T21:16:01.418Z,16.08
2022-12-14T21:19:05.882Z,16.08
2022-12-14T21:22:14.662Z,16.00
2022-12-14T21:25:16.822Z,15.96
2022-12-14T21:28:18.979Z,15.87
2022-12-14T21:31:25.235Z,16.02
2022-12-14T21:34:30.236Z,16.01
2022-12-14T21:37:32.510Z,15.93
2022-12-14T21:40:54.417Z,15.98
2022-12-14T21:43:59.378Z,15.77
2022-12-14T21:47:01.870Z,15.70
2022-12-14T21:50:06.001Z,15.76
2022-12-14T21:53:08.498Z,15.83
2022-12-14T21:56:30.435Z,15.78
2022-12-14T21:59:35.796Z,15.63
2022-12-14T22:02:37.999Z,15.55
2022-12-14T22:05:45.118Z,15.65
2022-12-14T22:08:47.580Z,15.65
2022-12-14T22:11:50.769Z,15.69
2022-12-14T22:14:55.671Z,15.72
2022-12-14T22:17:58.002Z,15.63
2022-12-14T22:21:06.810Z,15.86
2022-12-14T22:24:10.136Z,15.80
2022-12-14T22:27:12.938Z,16.11
2022-12-14T22:30:15.511Z,16.12
2022-12-14T22:33:17.628Z,16.08
2022-12-14T22:36:19.629Z,16.03
2022-12-14T22:39:21.602Z,16.21
2022-12-14T22:42:23.640Z,16.06
2022-12-14T22:45:27.739Z,16.13
2022-12-14T22:48:33.919Z,16.06
2022-12-14T22:51:38.175Z,15.93
2022-12-14T22:54:42.866Z,15.99
2022-12-14T22:57:47.345Z,15.97
2022-12-14T23:00:50.006Z,15.99
2022-12-14T23:03:53.151Z,16.00
2022-12-14T23:06:55.733Z,16.09
2022-12-14T23:10:16.502Z,15.93
2022-12-14T23:13:37.337Z,15.80
2022-12-14T23:16:58.084Z,15.97
2022-12-14T23:20:18.995Z,15.89
2022-12-14T23:23:42.111Z,15.99
2022-12-14T23:27:09.649Z,15.77
2022-12-14T23:30:30.952Z,15.84
2022-12-14T23:33:51.921Z,15.88
2022-12-14T23:37:17.993Z,15.89
2022-12-14T23:40:41.930Z,15.71
2022-12-14T23:44:02.733Z,15.70
2022-12-14T23:47:23.636Z,15.72
2022-12-14T23:50:45.874Z,15.74
2022-12-14T23:54:07.950Z,15.75
2022-12-14T23:57:28.728Z,15.83
